Truth — WYV5559 — position and weather

sailwx.info

Track history (hours):
 
Tides and Currents Weather Stations Pressure Air Temp Water Temp Dewpoint Dewpoint Depression Visibility Wind Speed Wind Dir Waves Ship Positions

Truth

Owner: TRUTH AQUATIES INC, SANTA BARBARA, CA. More information available from US FCC via Universal Licensing System and Coast Guard Vessel Documentation Center.

Last reported at 2014-Oct-21 00:33 UTC. Time now 2014-Oct-21 16:46 UTC.
Position N 34°24' W 119°42'.

Length 22 m.

Type: Diving. MMSI: 367384840.

Date/timePositionNaut miles runAvg speedWind from/ knotsBaromVisibWave heightAir tempDewpointWater temp
2014-Oct-21 00:33N 34°24' W 119°42'0 0.0
2014-Oct-20 23:33N 34°24' W 119°42'0 0.0
2014-Oct-20 22:33N 34°24' W 119°42'0 0.0
2014-Oct-20 21:33N 34°24' W 119°42'0 0.0
2014-Oct-20 20:33N 34°24' W 119°42'0 0.0
2014-Oct-20 17:33N 34°24' W 119°42'0 0.0
2014-Oct-20 16:33N 34°24' W 119°42'0 0.0
2014-Oct-20 15:33N 34°24' W 119°42'0 0.0
2014-Oct-20 14:33N 34°24' W 119°42'0 0.0
2014-Oct-20 13:33N 34°24' W 119°42'0 0.0
2014-Oct-20 12:33N 34°24' W 119°42'0 0.0
2014-Oct-20 11:33N 34°24' W 119°42'0 0.0
2014-Oct-20 10:27N 34°24' W 119°42'0 0.0
2014-Oct-20 09:33N 34°24' W 119°42'0 0.0
2014-Oct-20 08:33N 34°24' W 119°42'0 0.0
2014-Oct-20 07:27N 34°24' W 119°42'0 0.0
2014-Oct-20 06:33N 34°24' W 119°42'0 0.0
2014-Oct-20 05:33N 34°24' W 119°42'0 0.0
2014-Oct-20 04:33N 34°24' W 119°42'0 0.0
2014-Oct-20 03:33N 34°24' W 119°42'0 0.0
2014-Oct-20 01:33N 34°24' W 119°42'0 0.0
2014-Oct-20 00:33N 34°24' W 119°42'0 0.0
2014-Oct-19 23:33N 34°24' W 119°42'0 0.0
2014-Oct-19 22:33N 34°24' W 119°42'0 0.0
2014-Oct-19 21:33N 34°24' W 119°42'0 0.0
2014-Oct-19 20:33N 34°24' W 119°42'0 0.0
2014-Oct-19 19:27N 34°24' W 119°42'0 0.0
2014-Oct-19 17:21N 34°24' W 119°42'0 0.0
2014-Oct-19 16:33N 34°24' W 119°42'0 0.0
2014-Oct-19 15:33N 34°24' W 119°42'0 0.0
2014-Oct-19 14:33N 34°24' W 119°42'0 0.0
2014-Oct-19 13:33N 34°24' W 119°42'0 0.0
2014-Oct-19 12:33N 34°24' W 119°42'0 0.0
2014-Oct-19 11:33N 34°24' W 119°42'0 0.0
2014-Oct-19 10:27N 34°24' W 119°42'0 0.0
2014-Oct-19 09:33N 34°24' W 119°42'0 0.0
2014-Oct-19 08:27N 34°24' W 119°42'0 0.0
2014-Oct-19 07:27N 34°24' W 119°42'0 0.0
2014-Oct-19 06:33N 34°24' W 119°42'0 0.0
2014-Oct-19 05:15N 34°24' W 119°42'0 0.0
2014-Oct-19 04:33N 34°24' W 119°42'0 0.0
2014-Oct-19 01:27N 34°24' W 119°42'0 0.0
2014-Oct-19 00:18N 34°24' W 119°42'1 1.7
2014-Oct-18 23:31N 34°23' W 119°41'  
2014-Oct-16 12:12N 34°16' W 119°38'7 9.4
2014-Oct-16 11:27N 34°22' W 119°41'  
2014-Oct-13 00:29N 34°21' W 119°40'5 0.4
2014-Oct-12 12:05N 34°17' W 119°38'5 8.8
2014-Oct-12 11:33N 34°21' W 119°40'3 0.3
2014-Oct-11 23:31N 34°24' W 119°42'9 9.4
2014-Oct-11 22:33N 34°16' W 119°37'7 0.6
2014-Oct-11 11:22N 34°15' W 119°45'6 7.1
2014-Oct-11 10:33N 34°21' W 119°44'  
Track history (hours):
 
Tides and Currents Weather Stations Pressure Air Temp Water Temp Dewpoint Dewpoint Depression Visibility Wind Speed Wind Dir Waves Ship Positions

Truth

Owner: TRUTH AQUATIES INC, SANTA BARBARA, CA. More information available from US FCC via Universal Licensing System and Coast Guard Vessel Documentation Center.

Last reported at 2014-Oct-21 00:33 UTC. Time now 2014-Oct-21 16:46 UTC.
Position N 34°24' W 119°42'.

Length 22 m.

Type: Diving. MMSI: 367384840.

Date/timePositionNaut miles runAvg speedWind from/ knotsBaromVisibWave heightAir tempDewpointWater temp
2014-Oct-21 00:33N 34°24' W 119°42'0 0.0
2014-Oct-20 23:33N 34°24' W 119°42'0 0.0
2014-Oct-20 22:33N 34°24' W 119°42'0 0.0
2014-Oct-20 21:33N 34°24' W 119°42'0 0.0
2014-Oct-20 20:33N 34°24' W 119°42'0 0.0
2014-Oct-20 17:33N 34°24' W 119°42'0 0.0
2014-Oct-20 16:33N 34°24' W 119°42'0 0.0
2014-Oct-20 15:33N 34°24' W 119°42'0 0.0
2014-Oct-20 14:33N 34°24' W 119°42'0 0.0
2014-Oct-20 13:33N 34°24' W 119°42'0 0.0
2014-Oct-20 12:33N 34°24' W 119°42'0 0.0
2014-Oct-20 11:33N 34°24' W 119°42'0 0.0
2014-Oct-20 10:27N 34°24' W 119°42'0 0.0
2014-Oct-20 09:33N 34°24' W 119°42'0 0.0
2014-Oct-20 08:33N 34°24' W 119°42'0 0.0
2014-Oct-20 07:27N 34°24' W 119°42'0 0.0
2014-Oct-20 06:33N 34°24' W 119°42'0 0.0
2014-Oct-20 05:33N 34°24' W 119°42'0 0.0
2014-Oct-20 04:33N 34°24' W 119°42'0 0.0
2014-Oct-20 03:33N 34°24' W 119°42'0 0.0
2014-Oct-20 01:33N 34°24' W 119°42'0 0.0
2014-Oct-20 00:33N 34°24' W 119°42'0 0.0
2014-Oct-19 23:33N 34°24' W 119°42'0 0.0
2014-Oct-19 22:33N 34°24' W 119°42'0 0.0
2014-Oct-19 21:33N 34°24' W 119°42'0 0.0
2014-Oct-19 20:33N 34°24' W 119°42'0 0.0
2014-Oct-19 19:27N 34°24' W 119°42'0 0.0
2014-Oct-19 17:21N 34°24' W 119°42'0 0.0
2014-Oct-19 16:33N 34°24' W 119°42'0 0.0
2014-Oct-19 15:33N 34°24' W 119°42'0 0.0
2014-Oct-19 14:33N 34°24' W 119°42'0 0.0
2014-Oct-19 13:33N 34°24' W 119°42'0 0.0
2014-Oct-19 12:33N 34°24' W 119°42'0 0.0
2014-Oct-19 11:33N 34°24' W 119°42'0 0.0
2014-Oct-19 10:27N 34°24' W 119°42'0 0.0
2014-Oct-19 09:33N 34°24' W 119°42'0 0.0
2014-Oct-19 08:27N 34°24' W 119°42'0 0.0
2014-Oct-19 07:27N 34°24' W 119°42'0 0.0
2014-Oct-19 06:33N 34°24' W 119°42'0 0.0
2014-Oct-19 05:15N 34°24' W 119°42'0 0.0
2014-Oct-19 04:33N 34°24' W 119°42'0 0.0
2014-Oct-19 01:27N 34°24' W 119°42'0 0.0
2014-Oct-19 00:18N 34°24' W 119°42'1 1.7
2014-Oct-18 23:31N 34°23' W 119°41'  
2014-Oct-16 12:12N 34°16' W 119°38'7 9.4
2014-Oct-16 11:27N 34°22' W 119°41'  
2014-Oct-13 00:29N 34°21' W 119°40'5 0.4
2014-Oct-12 12:05N 34°17' W 119°38'5 8.8
2014-Oct-12 11:33N 34°21' W 119°40'3 0.3
2014-Oct-11 23:31N 34°24' W 119°42'9 9.4
2014-Oct-11 22:33N 34°16' W 119°37'7 0.6
2014-Oct-11 11:22N 34°15' W 119°45'6 7.1
2014-Oct-11 10:33N 34°21' W 119°44'  

Dump ship's entire track history